• Join FlightAware (Why Join?)
  • Login
  • US Flag 
07:03AM EDT


 

Airport Tracker/Info


-or-


 

Live Flight TrackerFlight Track Log ✈ CTL78 ✈ 12-Jul-2013 ✈ KPTK - KMBS

Flight Track Log - Related Links

Times and Time Zones

All times are in EDT time to prevent confusion due to time zone crossing. See the CTL78 flight status page for this flight to view local times or setup timezone preferences in your user account.

Time Position Orientation Groundspeed Altitude Reporting Facility
EDT Latitude Longitude Course Direction KTS MPH feet Rate Location/Type
04:08PM 42.6675 -83.4042 63° Northeast 118 136 1,400  Level Cleveland Center
04:09PM 42.6831 -83.3625 63° Northeast 141 162 2,100 600 Climbing Cleveland Center
04:10PM 42.7150 -83.3300 37° Northeast 151 174 2,700 540 Climbing Cleveland Center
04:12PM 42.7710 -83.3805 North  Level Estimated
04:19PM 43.0513 -83.5333 321° Northwest  Level FlightAware Approximate
04:20PM 43.0854 -83.5710 321° Northwest  Level FlightAware Approximate
04:21PM 43.1194 -83.6087 321° Northwest  Level FlightAware Approximate
04:22PM 43.1535 -83.6464 321° Northwest  Level FlightAware Approximate
04:23PM 43.1875 -83.6842 321° Northwest  Level FlightAware Approximate
04:24PM 43.2214 -83.7224 318° Northwest  Level FlightAware Approximate
04:25PM 43.2541 -83.7623 318° Northwest  Level FlightAware Approximate
04:26PM 43.2868 -83.8023 318° Northwest  Level FlightAware Approximate
04:27PM 43.3195 -83.8423 318° Northwest  Level FlightAware Approximate
04:28PM 43.3522 -83.8823 318° Northwest  Level FlightAware Approximate
04:29PM 43.3865 -83.9197 324° Northwest  Level FlightAware Approximate
04:30PM 43.4219 -83.9551 324° Northwest  Level FlightAware Approximate
04:31PM 43.4573 -83.9906 324° Northwest  Level FlightAware Approximate
04:32PM 43.4927 -84.0261 324° Northwest  Level FlightAware Approximate
04:33PM 43.5167 -84.0667 305° West  Level FlightAware Approximate
04:34PM 43.5329 -84.0796 305° West  Level Estimated
04:35PM 43.5329 -84.0796 305° West  Level Estimated
04:36PM 43.5329 -84.0796 305° West  Level Estimated
04:37PM 43.5329 -84.0796 305° West  Level Estimated
04:38PM 43.5329 -84.0796 305° West  Level Estimated
04:39PM 43.5329 -84.0796 305° West  Level Estimated
04:40PM 43.5329 -84.0796 305° West  Level Estimated